Kezdőlap
METAR-TAF:

METAR-TAF

Repülőterek :

Charles B. Wheeler Downtown Airport

Kansas City, Missouri, Amerikai Egyesült Államok

földrajzi szélesség: 39-07-15N, földrajzi hosszúság: 094-35-49W, magasság: 231 m

Jelenlegi meteorológiai megfigyelések

A jelentés 16 perccel ezelõtt készült, 12:54 UTC
Szélcsend
Hőmérséklet 26°C
Páratartalom 84%
Légköri nyomás 1018 hPa
Látótávolság: 11.3 km
Derült ég

METAR: KMKC 281254Z 00000KT 7SM CLR 26/23 A3005 RMK AO2 SLP166 T02610228

Idő: 08:10 (13:10 UTC)

Előrejelzés

A jelentés 1 órával és 50 perccel ezelõtt készült, 11:20 UTC
Az előrejelzés 28-én 12 óra UTC és 29-én 12 óra UTC között érvényes
Délnyugati szél 5 kt
Látótávolság: 10 km
Kevés felhő 25000 lábon

TAF: KMKC 281120Z 2812/2912 22005KT P6SM FEW250

Meteorológiai megfigyelések és előrejelzések több, mint 4000 repülőtéren (METAR és TAF jelentéseket).

A térképen piros és sárga pontok jelzik az elérhető meteorológiai állomásokat.

Mozgassa az egeret a pont fölött, hogy megjelenjen az állomás neve.

Azután kattintson az időjárási megfigyelések és előrejelzések megtekintéséhez.

A térkép megváltoztatása: kattintson a fekete keresztel jelölt zöld gombra ráközelítéshez, a vonallal jelölt zöld gombra távolításhoz, vagy a zöld nyilakra a szomszédos térképek eléréséhez.


METAR-TAF: